sensor_id;sensor_type;location;lat;lon;timestamp;temperature;humidity
5059;DHT22;2548;52.050;11.036;2023-04-05T00:01:49;0.70;99.90
5059;DHT22;2548;52.050;11.036;2023-04-05T00:04:18;0.60;99.90
5059;DHT22;2548;52.050;11.036;2023-04-05T00:06:47;0.60;99.90
5059;DHT22;2548;52.050;11.036;2023-04-05T00:09:18;0.60;99.90
5059;DHT22;2548;52.050;11.036;2023-04-05T00:11:46;0.60;99.90
5059;DHT22;2548;52.050;11.036;2023-04-05T00:14:14;0.60;99.90
5059;DHT22;2548;52.050;11.036;2023-04-05T00:16:43;0.70;99.90
5059;DHT22;2548;52.050;11.036;2023-04-05T00:19:11;0.70;99.90
5059;DHT22;2548;52.050;11.036;2023-04-05T00:21:38;0.70;99.90
5059;DHT22;2548;52.050;11.036;2023-04-05T00:24:06;0.70;99.90
5059;DHT22;2548;52.050;11.036;2023-04-05T00:26:40;0.70;99.90
5059;DHT22;2548;52.050;11.036;2023-04-05T00:29:10;0.70;99.90
5059;DHT22;2548;52.050;11.036;2023-04-05T00:31:37;0.70;99.90
5059;DHT22;2548;52.050;11.036;2023-04-05T00:34:06;0.70;99.90
5059;DHT22;2548;52.050;11.036;2023-04-05T00:36:35;0.70;99.90
5059;DHT22;2548;52.050;11.036;2023-04-05T00:39:03;0.60;99.90
5059;DHT22;2548;52.050;11.036;2023-04-05T00:41:30;0.60;99.90
5059;DHT22;2548;52.050;11.036;2023-04-05T00:43:58;0.60;99.90
5059;DHT22;2548;52.050;11.036;2023-04-05T00:46:26;0.70;99.90
5059;DHT22;2548;52.050;11.036;2023-04-05T00:48:54;0.70;99.90
5059;DHT22;2548;52.050;11.036;2023-04-05T00:51:24;0.60;99.90
5059;DHT22;2548;52.050;11.036;2023-04-05T00:53:51;0.60;99.90
5059;DHT22;2548;52.050;11.036;2023-04-05T00:56:19;0.60;99.90
5059;DHT22;2548;52.050;11.036;2023-04-05T00:58:49;0.70;99.90
5059;DHT22;2548;52.050;11.036;2023-04-05T01:01:19;0.70;99.90
5059;DHT22;2548;52.050;11.036;2023-04-05T01:03:51;0.70;99.90
5059;DHT22;2548;52.050;11.036;2023-04-05T01:06:33;0.80;99.90
5059;DHT22;2548;52.050;11.036;2023-04-05T01:09:07;0.70;99.90
5059;DHT22;2548;52.050;11.036;2023-04-05T01:11:37;0.60;99.90
5059;DHT22;2548;52.050;11.036;2023-04-05T01:14:05;0.50;99.90
5059;DHT22;2548;52.050;11.036;2023-04-05T01:16:33;0.60;99.90
5059;DHT22;2548;52.050;11.036;2023-04-05T01:19:00;0.60;99.90
5059;DHT22;2548;52.050;11.036;2023-04-05T01:25:07;0.60;99.90
5059;DHT22;2548;52.050;11.036;2023-04-05T01:27:55;0.50;99.90
5059;DHT22;2548;52.050;11.036;2023-04-05T01:30:32;0.50;99.90
5059;DHT22;2548;52.050;11.036;2023-04-05T01:33:11;0.50;99.90
5059;DHT22;2548;52.050;11.036;2023-04-05T01:35:49;0.50;99.90
5059;DHT22;2548;52.050;11.036;2023-04-05T01:38:18;0.50;99.90
5059;DHT22;2548;52.050;11.036;2023-04-05T01:40:48;0.50;99.90
5059;DHT22;2548;52.050;11.036;2023-04-05T01:43:16;0.50;99.90
5059;DHT22;2548;52.050;11.036;2023-04-05T01:45:45;0.60;99.90
5059;DHT22;2548;52.050;11.036;2023-04-05T01:48:14;0.60;99.90
5059;DHT22;2548;52.050;11.036;2023-04-05T01:50:41;0.60;99.90
5059;DHT22;2548;52.050;11.036;2023-04-05T01:53:09;0.60;99.90
5059;DHT22;2548;52.050;11.036;2023-04-05T01:55:36;0.50;99.90
5059;DHT22;2548;52.050;11.036;2023-04-05T01:58:04;0.50;99.90
5059;DHT22;2548;52.050;11.036;2023-04-05T02:00:31;0.50;99.90
5059;DHT22;2548;52.050;11.036;2023-04-05T02:03:00;0.50;99.90
5059;DHT22;2548;52.050;11.036;2023-04-05T02:05:27;0.50;99.90
5059;DHT22;2548;52.050;11.036;2023-04-05T02:07:55;0.40;99.90
5059;DHT22;2548;52.050;11.036;2023-04-05T02:10:23;0.40;99.90
5059;DHT22;2548;52.050;11.036;2023-04-05T02:12:50;0.50;99.90
5059;DHT22;2548;52.050;11.036;2023-04-05T02:15:18;0.50;99.90
5059;DHT22;2548;52.050;11.036;2023-04-05T02:17:45;0.50;99.90
5059;DHT22;2548;52.050;11.036;2023-04-05T02:20:14;0.60;99.90
5059;DHT22;2548;52.050;11.036;2023-04-05T02:22:43;0.50;99.90
5059;DHT22;2548;52.050;11.036;2023-04-05T02:25:11;0.50;99.90
5059;DHT22;2548;52.050;11.036;2023-04-05T02:27:38;0.50;99.90
5059;DHT22;2548;52.050;11.036;2023-04-05T02:30:07;0.50;99.90
5059;DHT22;2548;52.050;11.036;2023-04-05T02:32:35;0.50;99.90
5059;DHT22;2548;52.050;11.036;2023-04-05T02:35:03;0.50;99.90
5059;DHT22;2548;52.050;11.036;2023-04-05T02:37:32;0.50;99.90
5059;DHT22;2548;52.050;11.036;2023-04-05T02:40:00;0.60;99.90
5059;DHT22;2548;52.050;11.036;2023-04-05T02:42:29;0.60;99.90
5059;DHT22;2548;52.050;11.036;2023-04-05T02:44:57;0.60;99.90
5059;DHT22;2548;52.050;11.036;2023-04-05T02:47:24;0.60;99.90
5059;DHT22;2548;52.050;11.036;2023-04-05T02:49:56;0.60;99.90
5059;DHT22;2548;52.050;11.036;2023-04-05T02:52:27;0.60;99.90
5059;DHT22;2548;52.050;11.036;2023-04-05T02:54:56;0.50;99.90
5059;DHT22;2548;52.050;11.036;2023-04-05T02:57:28;0.50;99.90
5059;DHT22;2548;52.050;11.036;2023-04-05T03:00:21;0.40;99.90
5059;DHT22;2548;52.050;11.036;2023-04-05T03:02:49;0.40;99.90
5059;DHT22;2548;52.050;11.036;2023-04-05T03:05:17;0.30;99.90
5059;DHT22;2548;52.050;11.036;2023-04-05T03:07:49;0.40;99.90
5059;DHT22;2548;52.050;11.036;2023-04-05T03:10:21;0.40;99.90
5059;DHT22;2548;52.050;11.036;2023-04-05T03:12:57;0.30;99.90
5059;DHT22;2548;52.050;11.036;2023-04-05T03:15:26;0.30;99.90
5059;DHT22;2548;52.050;11.036;2023-04-05T03:17:55;0.30;99.90
5059;DHT22;2548;52.050;11.036;2023-04-05T03:20:24;0.30;99.90
5059;DHT22;2548;52.050;11.036;2023-04-05T03:22:55;0.30;99.90
5059;DHT22;2548;52.050;11.036;2023-04-05T03:25:29;0.20;99.90
5059;DHT22;2548;52.050;11.036;2023-04-05T03:27:57;0.20;99.90
5059;DHT22;2548;52.050;11.036;2023-04-05T03:30:29;0.20;99.90
5059;DHT22;2548;52.050;11.036;2023-04-05T03:33:03;0.10;99.90
5059;DHT22;2548;52.050;11.036;2023-04-05T03:35:38;0.10;99.90
5059;DHT22;2548;52.050;11.036;2023-04-05T03:38:08;0.10;99.90
5059;DHT22;2548;52.050;11.036;2023-04-05T03:40:41;0.00;99.90
5059;DHT22;2548;52.050;11.036;2023-04-05T03:43:10;0.00;99.90
5059;DHT22;2548;52.050;11.036;2023-04-05T03:45:37;0.00;99.90
5059;DHT22;2548;52.050;11.036;2023-04-05T03:48:05;0.00;99.90
5059;DHT22;2548;52.050;11.036;2023-04-05T03:50:32;-0.10;99.90
5059;DHT22;2548;52.050;11.036;2023-04-05T03:53:00;-0.10;99.90
5059;DHT22;2548;52.050;11.036;2023-04-05T03:55:30;-0.10;99.90
5059;DHT22;2548;52.050;11.036;2023-04-05T03:58:03;-0.10;99.90
5059;DHT22;2548;52.050;11.036;2023-04-05T04:00:35;-0.10;99.90
5059;DHT22;2548;52.050;11.036;2023-04-05T04:03:22;-0.10;99.90
5059;DHT22;2548;52.050;11.036;2023-04-05T04:05:51;-0.10;99.90
5059;DHT22;2548;52.050;11.036;2023-04-05T04:08:20;-0.10;99.90
5059;DHT22;2548;52.050;11.036;2023-04-05T04:10:48;-0.20;99.90
5059;DHT22;2548;52.050;11.036;2023-04-05T04:13:24;-0.10;99.90
5059;DHT22;2548;52.050;11.036;2023-04-05T04:15:59;-0.10;99.90
5059;DHT22;2548;52.050;11.036;2023-04-05T04:19:05;-0.20;99.90
5059;DHT22;2548;52.050;11.036;2023-04-05T04:21:35;-0.10;99.90
5059;DHT22;2548;52.050;11.036;2023-04-05T04:24:10;-0.10;99.90
5059;DHT22;2548;52.050;11.036;2023-04-05T04:26:59;-0.20;99.90
5059;DHT22;2548;52.050;11.036;2023-04-05T04:29:41;-0.30;99.90
5059;DHT22;2548;52.050;11.036;2023-04-05T04:32:18;-0.30;99.90
5059;DHT22;2548;52.050;11.036;2023-04-05T04:35:22;-0.30;99.90
5059;DHT22;2548;52.050;11.036;2023-04-05T04:38:07;-0.40;99.90
5059;DHT22;2548;52.050;11.036;2023-04-05T04:40:44;-0.40;99.90
5059;DHT22;2548;52.050;11.036;2023-04-05T04:43:39;-0.40;99.90
5059;DHT22;2548;52.050;11.036;2023-04-05T04:46:17;-0.50;99.90
5059;DHT22;2548;52.050;11.036;2023-04-05T04:49:04;-0.50;99.90
5059;DHT22;2548;52.050;11.036;2023-04-05T04:51:31;-0.50;99.90
5059;DHT22;2548;52.050;11.036;2023-04-05T04:53:59;-0.40;99.90
5059;DHT22;2548;52.050;11.036;2023-04-05T04:56:26;-0.40;99.90
5059;DHT22;2548;52.050;11.036;2023-04-05T04:58:55;-0.40;99.90
5059;DHT22;2548;52.050;11.036;2023-04-05T05:01:24;-0.30;99.90
5059;DHT22;2548;52.050;11.036;2023-04-05T05:03:51;-0.30;99.90
5059;DHT22;2548;52.050;11.036;2023-04-05T05:06:23;-0.30;99.90
5059;DHT22;2548;52.050;11.036;2023-04-05T05:08:52;-0.20;99.90
5059;DHT22;2548;52.050;11.036;2023-04-05T05:11:19;-0.20;99.90
5059;DHT22;2548;52.050;11.036;2023-04-05T05:13:47;-0.10;99.90
5059;DHT22;2548;52.050;11.036;2023-04-05T05:16:21;0.00;99.90
5059;DHT22;2548;52.050;11.036;2023-04-05T05:18:50;0.00;99.90
5059;DHT22;2548;52.050;11.036;2023-04-05T05:21:18;0.00;99.90
5059;DHT22;2548;52.050;11.036;2023-04-05T05:23:52;0.10;99.90
5059;DHT22;2548;52.050;11.036;2023-04-05T05:26:19;0.20;99.90
5059;DHT22;2548;52.050;11.036;2023-04-05T05:28:47;0.10;99.90
5059;DHT22;2548;52.050;11.036;2023-04-05T05:31:15;0.20;99.90
5059;DHT22;2548;52.050;11.036;2023-04-05T05:33:43;0.30;99.90
5059;DHT22;2548;52.050;11.036;2023-04-05T05:36:15;0.30;99.90
5059;DHT22;2548;52.050;11.036;2023-04-05T05:38:44;0.30;99.90
5059;DHT22;2548;52.050;11.036;2023-04-05T05:41:12;0.40;99.90
5059;DHT22;2548;52.050;11.036;2023-04-05T05:43:40;0.50;99.90
5059;DHT22;2548;52.050;11.036;2023-04-05T05:46:07;0.50;99.90
5059;DHT22;2548;52.050;11.036;2023-04-05T05:48:35;0.60;99.90
5059;DHT22;2548;52.050;11.036;2023-04-05T05:51:02;0.70;99.90
5059;DHT22;2548;52.050;11.036;2023-04-05T05:53:37;0.80;99.90
5059;DHT22;2548;52.050;11.036;2023-04-05T05:56:05;0.80;99.90
5059;DHT22;2548;52.050;11.036;2023-04-05T05:58:33;0.80;99.90
5059;DHT22;2548;52.050;11.036;2023-04-05T06:01:00;1.00;99.90
5059;DHT22;2548;52.050;11.036;2023-04-05T06:03:29;1.10;99.90
5059;DHT22;2548;52.050;11.036;2023-04-05T06:05:57;1.20;99.90
5059;DHT22;2548;52.050;11.036;2023-04-05T06:08:25;1.30;99.90
5059;DHT22;2548;52.050;11.036;2023-04-05T06:10:55;1.40;99.90
5059;DHT22;2548;52.050;11.036;2023-04-05T06:13:22;1.50;99.90
5059;DHT22;2548;52.050;11.036;2023-04-05T06:15:49;1.60;99.90
5059;DHT22;2548;52.050;11.036;2023-04-05T06:18:17;1.70;99.90
5059;DHT22;2548;52.050;11.036;2023-04-05T06:20:45;1.80;99.90
5059;DHT22;2548;52.050;11.036;2023-04-05T06:23:13;1.90;99.90
5059;DHT22;2548;52.050;11.036;2023-04-05T06:25:42;2.00;99.90
5059;DHT22;2548;52.050;11.036;2023-04-05T06:28:11;2.10;99.90
5059;DHT22;2548;52.050;11.036;2023-04-05T06:30:38;2.20;99.90
5059;DHT22;2548;52.050;11.036;2023-04-05T06:33:06;2.20;99.90
5059;DHT22;2548;52.050;11.036;2023-04-05T06:35:33;2.30;99.90
5059;DHT22;2548;52.050;11.036;2023-04-05T06:38:00;2.40;99.90
5059;DHT22;2548;52.050;11.036;2023-04-05T06:40:28;2.40;99.90
5059;DHT22;2548;52.050;11.036;2023-04-05T06:42:55;2.50;99.90
5059;DHT22;2548;52.050;11.036;2023-04-05T06:45:29;2.50;99.90
5059;DHT22;2548;52.050;11.036;2023-04-05T06:47:56;2.60;99.90
5059;DHT22;2548;52.050;11.036;2023-04-05T06:50:24;2.70;99.90
5059;DHT22;2548;52.050;11.036;2023-04-05T06:52:51;2.70;99.90
5059;DHT22;2548;52.050;11.036;2023-04-05T06:55:19;2.80;99.90
5059;DHT22;2548;52.050;11.036;2023-04-05T06:57:47;2.90;99.90
5059;DHT22;2548;52.050;11.036;2023-04-05T07:00:14;3.00;99.90
5059;DHT22;2548;52.050;11.036;2023-04-05T07:02:43;3.20;99.90
5059;DHT22;2548;52.050;11.036;2023-04-05T07:05:11;3.30;99.90
5059;DHT22;2548;52.050;11.036;2023-04-05T07:07:39;3.40;99.90
5059;DHT22;2548;52.050;11.036;2023-04-05T07:10:08;3.50;99.90
5059;DHT22;2548;52.050;11.036;2023-04-05T07:12:35;3.60;99.90
5059;DHT22;2548;52.050;11.036;2023-04-05T07:15:04;3.80;99.90
5059;DHT22;2548;52.050;11.036;2023-04-05T07:17:31;3.90;99.90
5059;DHT22;2548;52.050;11.036;2023-04-05T07:20:00;4.00;99.90
5059;DHT22;2548;52.050;11.036;2023-04-05T07:22:31;4.10;99.90
5059;DHT22;2548;52.050;11.036;2023-04-05T07:24:59;4.20;99.90
5059;DHT22;2548;52.050;11.036;2023-04-05T07:27:27;4.10;99.90
5059;DHT22;2548;52.050;11.036;2023-04-05T07:29:55;4.20;99.90
5059;DHT22;2548;52.050;11.036;2023-04-05T07:32:22;4.30;99.90
5059;DHT22;2548;52.050;11.036;2023-04-05T07:34:50;4.40;99.90
5059;DHT22;2548;52.050;11.036;2023-04-05T07:37:19;4.50;99.90
5059;DHT22;2548;52.050;11.036;2023-04-05T07:39:46;4.60;99.90
5059;DHT22;2548;52.050;11.036;2023-04-05T07:42:13;4.70;99.90
5059;DHT22;2548;52.050;11.036;2023-04-05T07:44:42;4.90;99.90
5059;DHT22;2548;52.050;11.036;2023-04-05T07:47:10;4.90;99.90
5059;DHT22;2548;52.050;11.036;2023-04-05T07:49:37;5.10;99.90
5059;DHT22;2548;52.050;11.036;2023-04-05T07:52:05;5.10;99.90
5059;DHT22;2548;52.050;11.036;2023-04-05T07:54:34;5.20;99.90
5059;DHT22;2548;52.050;11.036;2023-04-05T07:57:04;5.30;99.90
5059;DHT22;2548;52.050;11.036;2023-04-05T07:59:32;5.30;99.90
5059;DHT22;2548;52.050;11.036;2023-04-05T08:01:59;5.40;99.90
5059;DHT22;2548;52.050;11.036;2023-04-05T08:04:27;5.50;99.90
5059;DHT22;2548;52.050;11.036;2023-04-05T08:06:54;5.70;99.90
5059;DHT22;2548;52.050;11.036;2023-04-05T08:09:22;5.80;99.90
5059;DHT22;2548;52.050;11.036;2023-04-05T08:11:51;5.80;99.90
5059;DHT22;2548;52.050;11.036;2023-04-05T08:14:18;5.90;99.90
5059;DHT22;2548;52.050;11.036;2023-04-05T08:16:46;5.80;99.90
5059;DHT22;2548;52.050;11.036;2023-04-05T08:19:16;5.90;99.90
5059;DHT22;2548;52.050;11.036;2023-04-05T08:21:43;6.10;99.90
5059;DHT22;2548;52.050;11.036;2023-04-05T08:24:11;6.30;99.90
5059;DHT22;2548;52.050;11.036;2023-04-05T08:26:38;6.40;99.90
5059;DHT22;2548;52.050;11.036;2023-04-05T08:29:08;6.40;99.90
5059;DHT22;2548;52.050;11.036;2023-04-05T08:31:35;6.60;99.90
5059;DHT22;2548;52.050;11.036;2023-04-05T08:34:03;6.60;99.90
5059;DHT22;2548;52.050;11.036;2023-04-05T08:36:33;6.60;99.90
5059;DHT22;2548;52.050;11.036;2023-04-05T08:39:00;6.70;99.90
5059;DHT22;2548;52.050;11.036;2023-04-05T08:41:33;6.90;99.90
5059;DHT22;2548;52.050;11.036;2023-04-05T08:44:02;7.00;99.90
5059;DHT22;2548;52.050;11.036;2023-04-05T08:46:32;7.00;99.90
5059;DHT22;2548;52.050;11.036;2023-04-05T08:49:05;7.10;99.90
5059;DHT22;2548;52.050;11.036;2023-04-05T08:51:35;7.20;99.90
5059;DHT22;2548;52.050;11.036;2023-04-05T08:54:02;7.20;99.90
5059;DHT22;2548;52.050;11.036;2023-04-05T08:56:31;7.10;99.90
5059;DHT22;2548;52.050;11.036;2023-04-05T08:59:02;7.20;99.90
5059;DHT22;2548;52.050;11.036;2023-04-05T09:01:32;7.40;99.90
5059;DHT22;2548;52.050;11.036;2023-04-05T09:04:04;7.40;99.90
5059;DHT22;2548;52.050;11.036;2023-04-05T09:06:32;7.60;99.90
5059;DHT22;2548;52.050;11.036;2023-04-05T09:09:05;7.50;99.90
5059;DHT22;2548;52.050;11.036;2023-04-05T09:11:33;7.60;99.90
5059;DHT22;2548;52.050;11.036;2023-04-05T09:14:02;7.70;99.90
5059;DHT22;2548;52.050;11.036;2023-04-05T09:16:32;7.90;99.90
5059;DHT22;2548;52.050;11.036;2023-04-05T09:19:03;7.90;99.90
5059;DHT22;2548;52.050;11.036;2023-04-05T09:21:56;8.00;99.90
5059;DHT22;2548;52.050;11.036;2023-04-05T09:24:29;8.00;99.40
5059;DHT22;2548;52.050;11.036;2023-04-05T09:27:06;7.70;99.70
5059;DHT22;2548;52.050;11.036;2023-04-05T09:29:34;7.60;99.70
5059;DHT22;2548;52.050;11.036;2023-04-05T09:32:06;7.60;99.50
5059;DHT22;2548;52.050;11.036;2023-04-05T09:34:35;7.90;99.90
5059;DHT22;2548;52.050;11.036;2023-04-05T09:37:11;7.90;99.60
5059;DHT22;2548;52.050;11.036;2023-04-05T09:39:40;8.10;98.30
5059;DHT22;2548;52.050;11.036;2023-04-05T09:42:08;8.10;99.00
5059;DHT22;2548;52.050;11.036;2023-04-05T09:44:48;8.10;99.90
5059;DHT22;2548;52.050;11.036;2023-04-05T09:47:18;8.00;97.90
5059;DHT22;2548;52.050;11.036;2023-04-05T09:49:49;8.00;99.60
5059;DHT22;2548;52.050;11.036;2023-04-05T09:52:21;8.00;99.40
5059;DHT22;2548;52.050;11.036;2023-04-05T09:54:51;7.80;98.40
5059;DHT22;2548;52.050;11.036;2023-04-05T09:57:18;8.00;99.90
5059;DHT22;2548;52.050;11.036;2023-04-05T09:59:46;8.20;99.90
5059;DHT22;2548;52.050;11.036;2023-04-05T10:02:15;8.40;99.20
5059;DHT22;2548;52.050;11.036;2023-04-05T10:04:45;8.50;98.60
5059;DHT22;2548;52.050;11.036;2023-04-05T10:07:14;8.60;97.90
5059;DHT22;2548;52.050;11.036;2023-04-05T10:09:44;8.70;97.80
5059;DHT22;2548;52.050;11.036;2023-04-05T10:12:15;8.30;96.60
5059;DHT22;2548;52.050;11.036;2023-04-05T10:14:43;7.90;96.00
5059;DHT22;2548;52.050;11.036;2023-04-05T10:17:15;7.60;96.80
5059;DHT22;2548;52.050;11.036;2023-04-05T10:19:56;7.40;98.30
5059;DHT22;2548;52.050;11.036;2023-04-05T10:22:30;7.50;99.00
5059;DHT22;2548;52.050;11.036;2023-04-05T10:25:04;7.50;97.50
5059;DHT22;2548;52.050;11.036;2023-04-05T10:27:38;7.30;97.60
5059;DHT22;2548;52.050;11.036;2023-04-05T10:30:08;7.30;99.00
5059;DHT22;2548;52.050;11.036;2023-04-05T10:32:47;7.70;98.20
5059;DHT22;2548;52.050;11.036;2023-04-05T10:35:27;8.00;97.20
5059;DHT22;2548;52.050;11.036;2023-04-05T10:38:06;8.20;98.10
5059;DHT22;2548;52.050;11.036;2023-04-05T10:40:37;8.70;99.10
5059;DHT22;2548;52.050;11.036;2023-04-05T10:43:07;8.90;98.00
5059;DHT22;2548;52.050;11.036;2023-04-05T10:45:38;8.70;95.80
5059;DHT22;2548;52.050;11.036;2023-04-05T10:48:14;8.60;97.10
5059;DHT22;2548;52.050;11.036;2023-04-05T10:50:44;8.30;97.50
5059;DHT22;2548;52.050;11.036;2023-04-05T10:53:14;8.10;98.00
5059;DHT22;2548;52.050;11.036;2023-04-05T10:55:43;7.80;97.30
5059;DHT22;2548;52.050;11.036;2023-04-05T10:58:12;7.50;98.10
5059;DHT22;2548;52.050;11.036;2023-04-05T11:00:41;7.50;98.50
5059;DHT22;2548;52.050;11.036;2023-04-05T11:03:08;7.30;97.70
5059;DHT22;2548;52.050;11.036;2023-04-05T11:05:36;7.50;98.20
5059;DHT22;2548;52.050;11.036;2023-04-05T11:08:07;7.70;98.70
5059;DHT22;2548;52.050;11.036;2023-04-05T11:10:36;7.80;96.90
5059;DHT22;2548;52.050;11.036;2023-04-05T11:13:05;8.00;98.00
5059;DHT22;2548;52.050;11.036;2023-04-05T11:15:33;8.00;97.80
5059;DHT22;2548;52.050;11.036;2023-04-05T11:18:03;7.90;97.20
5059;DHT22;2548;52.050;11.036;2023-04-05T11:20:42;7.80;96.30
5059;DHT22;2548;52.050;11.036;2023-04-05T11:23:12;8.10;97.10
5059;DHT22;2548;52.050;11.036;2023-04-05T11:25:45;8.20;98.30
5059;DHT22;2548;52.050;11.036;2023-04-05T11:28:28;8.30;97.20
5059;DHT22;2548;52.050;11.036;2023-04-05T11:30:56;8.30;97.40
5059;DHT22;2548;52.050;11.036;2023-04-05T11:33:37;8.40;96.30
5059;DHT22;2548;52.050;11.036;2023-04-05T11:36:05;8.60;96.30
5059;DHT22;2548;52.050;11.036;2023-04-05T11:38:35;8.80;96.10
5059;DHT22;2548;52.050;11.036;2023-04-05T11:41:06;9.00;95.80
5059;DHT22;2548;52.050;11.036;2023-04-05T11:43:37;9.20;96.50
5059;DHT22;2548;52.050;11.036;2023-04-05T11:46:05;9.50;96.90
5059;DHT22;2548;52.050;11.036;2023-04-05T11:48:32;9.60;96.40
5059;DHT22;2548;52.050;11.036;2023-04-05T11:51:07;9.90;97.70
5059;DHT22;2548;52.050;11.036;2023-04-05T11:53:37;10.00;95.80
5059;DHT22;2548;52.050;11.036;2023-04-05T11:56:09;10.10;94.90
5059;DHT22;2548;52.050;11.036;2023-04-05T11:58:38;10.20;96.70
5059;DHT22;2548;52.050;11.036;2023-04-05T12:01:07;10.20;94.80
5059;DHT22;2548;52.050;11.036;2023-04-05T12:03:35;10.30;95.10
5059;DHT22;2548;52.050;11.036;2023-04-05T12:06:04;10.30;94.10
5059;DHT22;2548;52.050;11.036;2023-04-05T12:08:40;10.20;93.70
5059;DHT22;2548;52.050;11.036;2023-04-05T12:11:09;10.30;95.20
5059;DHT22;2548;52.050;11.036;2023-04-05T12:13:37;10.60;96.50
5059;DHT22;2548;52.050;11.036;2023-04-05T12:16:06;10.70;94.90
5059;DHT22;2548;52.050;11.036;2023-04-05T12:18:35;10.80;96.20
5059;DHT22;2548;52.050;11.036;2023-04-05T12:21:04;10.90;96.00
5059;DHT22;2548;52.050;11.036;2023-04-05T12:23:32;10.90;94.10
5059;DHT22;2548;52.050;11.036;2023-04-05T12:26:02;11.00;94.80
5059;DHT22;2548;52.050;11.036;2023-04-05T12:28:48;11.00;94.60
5059;DHT22;2548;52.050;11.036;2023-04-05T12:31:16;11.00;94.70
5059;DHT22;2548;52.050;11.036;2023-04-05T12:33:43;10.90;93.70
5059;DHT22;2548;52.050;11.036;2023-04-05T12:36:13;11.00;94.40
5059;DHT22;2548;52.050;11.036;2023-04-05T12:38:41;11.20;93.30
5059;DHT22;2548;52.050;11.036;2023-04-05T12:41:09;11.20;94.50
5059;DHT22;2548;52.050;11.036;2023-04-05T12:43:38;11.30;95.30
5059;DHT22;2548;52.050;11.036;2023-04-05T12:46:08;11.30;92.90
5059;DHT22;2548;52.050;11.036;2023-04-05T12:48:37;11.20;91.90
5059;DHT22;2548;52.050;11.036;2023-04-05T12:51:13;11.00;91.90
5059;DHT22;2548;52.050;11.036;2023-04-05T12:53:44;10.90;92.30
5059;DHT22;2548;52.050;11.036;2023-04-05T12:56:14;11.00;92.50
5059;DHT22;2548;52.050;11.036;2023-04-05T12:58:42;10.90;91.50
5059;DHT22;2548;52.050;11.036;2023-04-05T13:01:09;10.90;92.00
5059;DHT22;2548;52.050;11.036;2023-04-05T13:03:37;10.90;91.30
5059;DHT22;2548;52.050;11.036;2023-04-05T13:06:05;11.10;93.00
5059;DHT22;2548;52.050;11.036;2023-04-05T13:08:33;11.30;93.50
5059;DHT22;2548;52.050;11.036;2023-04-05T13:11:00;11.50;92.20
5059;DHT22;2548;52.050;11.036;2023-04-05T13:13:29;11.70;92.60
5059;DHT22;2548;52.050;11.036;2023-04-05T13:15:56;11.90;94.00
5059;DHT22;2548;52.050;11.036;2023-04-05T13:18:24;12.10;92.40
5059;DHT22;2548;52.050;11.036;2023-04-05T13:20:51;12.00;91.90
5059;DHT22;2548;52.050;11.036;2023-04-05T13:23:19;12.00;91.40
5059;DHT22;2548;52.050;11.036;2023-04-05T13:25:46;12.10;91.30
5059;DHT22;2548;52.050;11.036;2023-04-05T13:28:14;11.80;90.80
5059;DHT22;2548;52.050;11.036;2023-04-05T13:30:43;11.60;91.20
5059;DHT22;2548;52.050;11.036;2023-04-05T13:33:10;11.40;91.20
5059;DHT22;2548;52.050;11.036;2023-04-05T13:35:38;11.10;91.40
5059;DHT22;2548;52.050;11.036;2023-04-05T13:38:05;11.30;92.50
5059;DHT22;2548;52.050;11.036;2023-04-05T13:40:33;11.30;93.10
5059;DHT22;2548;52.050;11.036;2023-04-05T13:43:00;11.30;91.50
5059;DHT22;2548;52.050;11.036;2023-04-05T13:45:28;11.30;91.00
5059;DHT22;2548;52.050;11.036;2023-04-05T13:47:57;11.30;92.00
5059;DHT22;2548;52.050;11.036;2023-04-05T13:50:25;10.90;91.40
5059;DHT22;2548;52.050;11.036;2023-04-05T13:52:52;10.70;90.90
5059;DHT22;2548;52.050;11.036;2023-04-05T13:55:20;10.80;92.00
5059;DHT22;2548;52.050;11.036;2023-04-05T13:57:48;10.70;92.50
5059;DHT22;2548;52.050;11.036;2023-04-05T14:00:15;10.70;92.70
5059;DHT22;2548;52.050;11.036;2023-04-05T14:02:43;10.50;92.40
5059;DHT22;2548;52.050;11.036;2023-04-05T14:05:12;10.40;92.80
5059;DHT22;2548;52.050;11.036;2023-04-05T14:07:40;10.30;92.90
5059;DHT22;2548;52.050;11.036;2023-04-05T14:10:08;10.20;91.40
5059;DHT22;2548;52.050;11.036;2023-04-05T14:12:36;10.00;92.30
5059;DHT22;2548;52.050;11.036;2023-04-05T14:15:05;10.00;92.80
5059;DHT22;2548;52.050;11.036;2023-04-05T14:17:33;10.00;91.90
5059;DHT22;2548;52.050;11.036;2023-04-05T14:20:00;10.00;92.30
5059;DHT22;2548;52.050;11.036;2023-04-05T14:22:29;9.90;92.40
5059;DHT22;2548;52.050;11.036;2023-04-05T14:24:57;9.80;92.40
5059;DHT22;2548;52.050;11.036;2023-04-05T14:27:24;9.80;92.90
5059;DHT22;2548;52.050;11.036;2023-04-05T14:29:53;9.80;92.90
5059;DHT22;2548;52.050;11.036;2023-04-05T14:32:22;9.70;92.40
5059;DHT22;2548;52.050;11.036;2023-04-05T14:34:50;9.60;92.20
5059;DHT22;2548;52.050;11.036;2023-04-05T14:37:20;9.70;92.60
5059;DHT22;2548;52.050;11.036;2023-04-05T14:39:55;9.70;94.60
5059;DHT22;2548;52.050;11.036;2023-04-05T14:42:26;9.70;93.60
5059;DHT22;2548;52.050;11.036;2023-04-05T14:44:54;9.80;93.40
5059;DHT22;2548;52.050;11.036;2023-04-05T14:47:21;9.80;93.40
5059;DHT22;2548;52.050;11.036;2023-04-05T14:49:49;9.80;92.50
5059;DHT22;2548;52.050;11.036;2023-04-05T14:52:17;9.90;93.00
5059;DHT22;2548;52.050;11.036;2023-04-05T14:54:45;9.90;92.40
5059;DHT22;2548;52.050;11.036;2023-04-05T14:57:14;9.90;92.30
5059;DHT22;2548;52.050;11.036;2023-04-05T14:59:42;10.30;93.30
5059;DHT22;2548;52.050;11.036;2023-04-05T15:02:10;10.60;94.30
5059;DHT22;2548;52.050;11.036;2023-04-05T15:04:38;10.90;93.80
5059;DHT22;2548;52.050;11.036;2023-04-05T15:07:07;11.00;93.00
5059;DHT22;2548;52.050;11.036;2023-04-05T15:09:35;10.90;92.60
5059;DHT22;2548;52.050;11.036;2023-04-05T15:12:03;10.80;92.70
5059;DHT22;2548;52.050;11.036;2023-04-05T15:14:34;10.90;92.40
5059;DHT22;2548;52.050;11.036;2023-04-05T15:17:08;10.90;92.20
5059;DHT22;2548;52.050;11.036;2023-04-05T15:19:37;10.60;91.50
5059;DHT22;2548;52.050;11.036;2023-04-05T15:22:05;10.30;90.10
5059;DHT22;2548;52.050;11.036;2023-04-05T15:24:33;10.10;90.80
5059;DHT22;2548;52.050;11.036;2023-04-05T15:27:08;9.90;92.50
5059;DHT22;2548;52.050;11.036;2023-04-05T15:29:38;9.60;92.10
5059;DHT22;2548;52.050;11.036;2023-04-05T15:32:06;9.50;91.00
5059;DHT22;2548;52.050;11.036;2023-04-05T15:34:34;9.30;91.70
5059;DHT22;2548;52.050;11.036;2023-04-05T15:37:04;9.20;91.50
5059;DHT22;2548;52.050;11.036;2023-04-05T15:39:35;9.10;92.30
5059;DHT22;2548;52.050;11.036;2023-04-05T15:42:06;9.20;92.20
5059;DHT22;2548;52.050;11.036;2023-04-05T15:44:34;9.40;92.90
5059;DHT22;2548;52.050;11.036;2023-04-05T15:47:03;9.50;92.40
5059;DHT22;2548;52.050;11.036;2023-04-05T15:49:31;9.50;92.00
5059;DHT22;2548;52.050;11.036;2023-04-05T15:51:59;9.50;92.20
5059;DHT22;2548;52.050;11.036;2023-04-05T15:54:32;9.40;92.30
5059;DHT22;2548;52.050;11.036;2023-04-05T15:57:00;9.40;91.50
5059;DHT22;2548;52.050;11.036;2023-04-05T15:59:28;9.30;91.10
5059;DHT22;2548;52.050;11.036;2023-04-05T16:01:55;9.20;91.20
5059;DHT22;2548;52.050;11.036;2023-04-05T16:04:25;9.30;91.30
5059;DHT22;2548;52.050;11.036;2023-04-05T16:06:53;9.20;91.40
5059;DHT22;2548;52.050;11.036;2023-04-05T16:09:21;9.20;91.50
5059;DHT22;2548;52.050;11.036;2023-04-05T16:11:49;9.00;91.50
5059;DHT22;2548;52.050;11.036;2023-04-05T16:14:19;9.00;92.20
5059;DHT22;2548;52.050;11.036;2023-04-05T16:16:47;9.10;91.50
5059;DHT22;2548;52.050;11.036;2023-04-05T16:19:15;9.00;91.90